createdAt,value
2019-03-13T00:01:39.039Z,91.33
2019-03-13T00:02:39.042Z,91.24
2019-03-13T00:04:31.940Z,90.76
2019-03-13T00:05:31.948Z,90.76
2019-03-13T00:07:24.853Z,90.85
2019-03-13T00:08:24.854Z,90.47
2019-03-13T00:10:18.271Z,90.19
2019-03-13T00:11:18.256Z,90.19
2019-03-13T00:13:11.156Z,90.28
2019-03-13T00:14:11.162Z,90.47
2019-03-13T00:16:04.070Z,89.81
2019-03-13T00:17:04.069Z,90.09
2019-03-13T00:18:56.964Z,90.00
2019-03-13T00:19:56.973Z,90.57
2019-03-13T00:21:49.880Z,90.19
2019-03-13T00:22:49.903Z,90.00
2019-03-13T00:24:42.777Z,90.28
2019-03-13T00:25:42.785Z,90.19
2019-03-13T00:27:35.692Z,89.62
2019-03-13T00:28:35.696Z,90.09
2019-03-13T00:30:28.599Z,90.47
2019-03-13T00:31:28.601Z,90.00
2019-03-13T00:33:21.505Z,89.62
2019-03-13T00:34:21.510Z,89.72
2019-03-13T00:36:14.414Z,89.81
2019-03-13T00:37:14.416Z,89.90
2019-03-13T00:39:07.317Z,89.43
2019-03-13T00:40:07.326Z,88.86
2019-03-13T00:42:00.234Z,89.24
2019-03-13T00:43:00.238Z,89.05
2019-03-13T00:44:53.132Z,89.72
2019-03-13T00:45:53.142Z,89.43
2019-03-13T00:47:46.046Z,89.43
2019-03-13T00:48:46.049Z,89.43
2019-03-13T00:50:38.953Z,89.05
2019-03-13T00:51:38.956Z,89.62
2019-03-13T00:53:31.853Z,89.24
2019-03-13T00:54:31.865Z,89.24
2019-03-13T00:56:24.768Z,89.05
2019-03-13T00:57:24.769Z,88.76
2019-03-13T00:59:17.665Z,88.20
2019-03-13T01:00:17.677Z,88.57
2019-03-13T01:02:11.078Z,88.29
2019-03-13T01:03:11.081Z,88.20
2019-03-13T01:05:03.976Z,88.29
2019-03-13T01:06:03.985Z,88.10
2019-03-13T01:07:56.890Z,88.29
2019-03-13T01:08:56.891Z,88.10
2019-03-13T01:10:49.795Z,88.48
2019-03-13T01:11:49.800Z,88.67
2019-03-13T01:13:42.698Z,88.57
2019-03-13T01:14:42.708Z,88.76
2019-03-13T01:16:35.609Z,88.76
2019-03-13T01:17:38.691Z,88.67
2019-03-13T01:19:28.510Z,88.57
2019-03-13T01:20:28.520Z,88.57
2019-03-13T01:22:21.428Z,88.95
2019-03-13T01:23:21.430Z,88.67
2019-03-13T01:25:14.822Z,88.95
2019-03-13T01:26:14.833Z,88.76
2019-03-13T01:28:07.738Z,88.20
2019-03-13T01:29:07.740Z,88.20
2019-03-13T01:31:00.646Z,88.34
2019-03-13T01:32:00.649Z,88.34
2019-03-13T01:33:53.544Z,88.39
2019-03-13T01:34:53.554Z,88.34
2019-03-13T01:36:46.477Z,88.01
2019-03-13T01:37:46.464Z,87.29
2019-03-13T01:39:39.359Z,87.38
2019-03-13T01:40:39.372Z,86.96
2019-03-13T01:42:32.273Z,87.24
2019-03-13T01:43:32.276Z,87.15
2019-03-13T01:45:25.174Z,87.29
2019-03-13T01:46:25.183Z,86.49
2019-03-13T01:48:18.088Z,86.58
2019-03-13T01:49:18.091Z,86.68
2019-03-13T01:51:11.007Z,86.63
2019-03-13T01:52:10.998Z,86.34
2019-03-13T01:54:03.895Z,86.05
2019-03-13T01:55:03.905Z,86.05
2019-03-13T01:56:56.811Z,85.96
2019-03-13T01:57:56.813Z,85.96
2019-03-13T01:59:49.711Z,86.01
2019-03-13T02:00:49.721Z,85.91
2019-03-13T02:02:42.625Z,86.01
2019-03-13T02:03:42.628Z,85.96
2019-03-13T02:05:35.535Z,85.20
2019-03-13T02:06:35.535Z,85.35
2019-03-13T02:08:28.442Z,84.87
2019-03-13T02:09:28.444Z,85.53
2019-03-13T02:11:21.348Z,86.01
2019-03-13T02:12:21.350Z,86.20
2019-03-13T02:14:14.338Z,86.30
2019-03-13T02:15:14.263Z,85.82
2019-03-13T02:17:07.160Z,85.72
2019-03-13T02:18:07.164Z,86.30
2019-03-13T02:20:00.060Z,86.68
2019-03-13T02:21:00.068Z,86.30
2019-03-13T02:22:52.973Z,86.39
2019-03-13T02:23:52.975Z,86.58
2019-03-13T02:25:45.873Z,87.15
2019-03-13T02:26:45.884Z,87.15
2019-03-13T02:28:38.787Z,87.05
2019-03-13T02:29:38.788Z,87.43
2019-03-13T02:31:31.695Z,88.10
2019-03-13T02:32:31.694Z,87.34
2019-03-13T02:34:24.593Z,87.05
2019-03-13T02:35:24.599Z,86.96
2019-03-13T02:37:17.506Z,87.53
2019-03-13T02:38:17.510Z,87.43
2019-03-13T02:40:10.410Z,86.96
2019-03-13T02:41:10.417Z,87.15
2019-03-13T02:43:03.376Z,87.34
2019-03-13T02:44:03.332Z,86.68
2019-03-13T02:45:56.221Z,86.77
2019-03-13T02:46:56.228Z,86.30
2019-03-13T02:48:49.132Z,86.77
2019-03-13T02:49:49.133Z,86.68
2019-03-13T02:51:42.037Z,86.68
2019-03-13T02:52:42.041Z,86.77
2019-03-13T02:54:34.937Z,86.68
2019-03-13T02:55:34.946Z,87.15
2019-03-13T02:57:27.855Z,87.34
2019-03-13T02:58:27.853Z,87.24
2019-03-13T03:00:20.754Z,86.58
2019-03-13T03:01:20.761Z,86.30
2019-03-13T03:03:13.702Z,86.68
2019-03-13T03:04:13.666Z,86.58
2019-03-13T03:06:06.565Z,86.77
2019-03-13T03:07:06.572Z,86.43
2019-03-13T03:08:59.476Z,86.20
2019-03-13T03:09:59.477Z,86.20
2019-03-13T03:11:52.381Z,86.15
2019-03-13T03:12:52.431Z,86.39
2019-03-13T03:14:46.272Z,85.72
2019-03-13T03:15:46.284Z,85.91
2019-03-13T03:17:39.190Z,85.53
2019-03-13T03:18:39.192Z,85.49
2019-03-13T03:20:32.093Z,85.68
2019-03-13T03:21:32.101Z,85.91
2019-03-13T03:23:25.009Z,85.20
2019-03-13T03:24:25.010Z,85.58
2019-03-13T03:26:17.911Z,85.20
2019-03-13T03:27:17.921Z,85.44
2019-03-13T03:29:10.824Z,84.91
2019-03-13T03:30:10.832Z,85.11
2019-03-13T03:32:03.733Z,85.11
2019-03-13T03:33:03.784Z,85.11
2019-03-13T03:34:56.632Z,85.20
2019-03-13T03:35:56.641Z,84.91
2019-03-13T03:37:49.546Z,84.53
2019-03-13T03:38:49.548Z,84.63
2019-03-13T03:40:42.444Z,84.53
2019-03-13T03:41:42.455Z,84.44
2019-03-13T03:43:40.716Z,84.91
2019-03-13T03:44:35.856Z,84.72
2019-03-13T03:46:29.754Z,84.25
2019-03-13T03:47:29.798Z,84.63
2019-03-13T03:49:22.662Z,84.44
2019-03-13T03:50:22.666Z,84.25
2019-03-13T03:52:16.069Z,84.06
2019-03-13T03:53:16.069Z,84.44
2019-03-13T03:55:08.967Z,84.25
2019-03-13T03:56:08.976Z,84.63
2019-03-13T03:58:02.376Z,84.06
2019-03-13T03:59:02.379Z,84.44
2019-03-13T04:00:55.393Z,84.06
2019-03-13T04:01:55.288Z,84.16
2019-03-13T04:03:48.196Z,83.01
2019-03-13T04:04:48.195Z,83.68
2019-03-13T04:06:41.097Z,83.39
2019-03-13T04:07:41.104Z,83.68
2019-03-13T04:09:34.006Z,82.92
2019-03-13T04:10:34.014Z,83.30
2019-03-13T04:12:26.915Z,82.82
2019-03-13T04:13:26.918Z,82.54
2019-03-13T04:15:19.823Z,82.73
2019-03-13T04:16:19.824Z,83.11
2019-03-13T04:18:12.728Z,82.73
2019-03-13T04:19:12.731Z,82.92
2019-03-13T04:21:05.635Z,82.45
2019-03-13T04:22:05.650Z,82.73
2019-03-13T04:23:58.558Z,82.54
2019-03-13T04:24:58.557Z,82.16
2019-03-13T04:26:51.455Z,81.97
2019-03-13T04:27:51.466Z,82.16
2019-03-13T04:29:44.863Z,82.35
2019-03-13T04:30:44.873Z,81.68
2019-03-13T04:32:37.772Z,82.35
2019-03-13T04:33:37.776Z,81.97
2019-03-13T04:35:30.679Z,82.54
2019-03-13T04:36:30.685Z,82.73
2019-03-13T04:38:23.598Z,81.87
2019-03-13T04:39:23.595Z,82.07
2019-03-13T04:41:16.492Z,81.87
2019-03-13T04:42:16.501Z,82.16
2019-03-13T04:44:09.410Z,82.82
2019-03-13T04:45:09.410Z,82.64
2019-03-13T04:47:02.309Z,81.97
2019-03-13T04:48:02.319Z,82.07
2019-03-13T04:49:55.223Z,82.16
2019-03-13T04:50:55.226Z,81.87
2019-03-13T04:52:48.135Z,81.78
2019-03-13T04:53:48.133Z,81.59
2019-03-13T04:55:41.525Z,81.68
2019-03-13T04:56:41.536Z,81.87
2019-03-13T04:58:34.440Z,81.97
2019-03-13T04:59:34.442Z,81.49
2019-03-13T05:01:27.344Z,81.40
2019-03-13T05:02:27.351Z,81.49
2019-03-13T05:04:20.255Z,81.12
2019-03-13T05:05:20.260Z,81.97
2019-03-13T05:07:13.157Z,81.87
2019-03-13T05:08:13.171Z,82.07
2019-03-13T05:10:06.081Z,82.35
2019-03-13T05:11:06.081Z,82.54
2019-03-13T05:12:59.113Z,82.16
2019-03-13T05:13:58.982Z,82.01
2019-03-13T05:15:52.373Z,80.87
2019-03-13T05:16:52.384Z,80.64
2019-03-13T05:18:45.287Z,80.07
2019-03-13T05:19:45.291Z,80.55
2019-03-13T05:21:38.187Z,80.35
2019-03-13T05:22:38.201Z,80.83
2019-03-13T05:24:31.596Z,80.16
2019-03-13T05:25:31.600Z,80.55
2019-03-13T05:27:24.508Z,80.30
2019-03-13T05:28:24.517Z,79.31
2019-03-13T05:30:17.916Z,79.73
2019-03-13T05:31:17.927Z,79.35
2019-03-13T05:33:10.827Z,79.54
2019-03-13T05:34:10.828Z,80.11
2019-03-13T05:36:03.730Z,79.73
2019-03-13T05:37:03.742Z,80.30
2019-03-13T05:38:56.649Z,79.44
2019-03-13T05:39:56.715Z,79.83
2019-03-13T05:41:49.547Z,79.25
2019-03-13T05:42:49.606Z,79.35
2019-03-13T05:44:42.463Z,79.92
2019-03-13T05:45:42.466Z,79.63
2019-03-13T05:47:35.363Z,80.11
2019-03-13T05:48:35.378Z,80.21
2019-03-13T05:50:31.332Z,79.63
2019-03-13T05:51:28.282Z,79.63
2019-03-13T05:53:21.199Z,79.73
2019-03-13T05:54:21.191Z,80.02
2019-03-13T05:56:14.100Z,79.35
2019-03-13T05:57:14.098Z,79.16
2019-03-13T05:59:07.004Z,79.44
2019-03-13T06:00:07.008Z,79.16
2019-03-13T06:01:59.905Z,79.16
2019-03-13T06:02:59.917Z,79.44
2019-03-13T06:04:52.821Z,79.35
2019-03-13T06:05:52.824Z,79.35
2019-03-13T06:07:46.215Z,79.35
2019-03-13T06:08:46.228Z,79.54
2019-03-13T06:10:39.136Z,79.16
2019-03-13T06:11:39.138Z,79.63
2019-03-13T06:13:32.047Z,78.97
2019-03-13T06:14:32.048Z,78.78
2019-03-13T06:16:24.951Z,79.16
2019-03-13T06:17:24.959Z,79.25
2019-03-13T06:19:17.882Z,79.06
2019-03-13T06:20:17.870Z,79.35
2019-03-13T06:22:10.762Z,79.54
2019-03-13T06:23:10.772Z,79.35
2019-03-13T06:25:03.686Z,79.35
2019-03-13T06:26:03.682Z,79.06
2019-03-13T06:27:56.580Z,78.97
2019-03-13T06:28:56.590Z,79.35
2019-03-13T06:30:49.498Z,79.35
2019-03-13T06:31:49.597Z,79.35
2019-03-13T06:33:42.412Z,79.63
2019-03-13T06:34:42.413Z,79.44
2019-03-13T06:36:35.806Z,79.63
2019-03-13T06:37:35.814Z,79.16
2019-03-13T06:39:31.826Z,79.35
2019-03-13T06:40:28.731Z,79.54
2019-03-13T06:42:21.621Z,79.54
2019-03-13T06:43:21.631Z,79.54
2019-03-13T06:45:14.539Z,79.25
2019-03-13T06:46:14.540Z,79.44
2019-03-13T06:48:08.888Z,78.88
2019-03-13T06:49:08.898Z,79.06
2019-03-13T06:51:01.806Z,78.21
2019-03-13T06:52:01.806Z,78.88
2019-03-13T06:53:55.204Z,78.78
2019-03-13T06:54:55.210Z,78.78
2019-03-13T06:56:48.108Z,78.88
2019-03-13T06:57:48.118Z,79.06
2019-03-13T06:59:41.022Z,79.06
2019-03-13T07:00:41.027Z,78.78
2019-03-13T07:02:33.922Z,78.21
2019-03-13T07:03:33.932Z,77.55
2019-03-13T07:05:26.836Z,78.50
2019-03-13T07:06:26.838Z,78.50
2019-03-13T07:08:19.739Z,78.88
2019-03-13T07:09:19.748Z,79.35
2019-03-13T07:11:12.656Z,79.44
2019-03-13T07:12:12.659Z,79.63
2019-03-13T07:14:05.566Z,79.63
2019-03-13T07:15:05.571Z,80.21
2019-03-13T07:16:58.466Z,81.92
2019-03-13T07:17:58.477Z,82.96
2019-03-13T07:19:51.386Z,82.58
2019-03-13T07:20:51.391Z,81.92
2019-03-13T07:22:44.288Z,81.92
2019-03-13T07:23:44.298Z,81.25
2019-03-13T07:25:37.201Z,80.30
2019-03-13T07:26:37.205Z,79.83
2019-03-13T07:28:30.104Z,79.92
2019-03-13T07:29:30.120Z,80.40
2019-03-13T07:31:23.051Z,81.35
2019-03-13T07:32:23.022Z,82.29
2019-03-13T07:34:15.927Z,82.58
2019-03-13T07:35:15.930Z,82.58
2019-03-13T07:37:08.829Z,82.87
2019-03-13T07:38:08.838Z,82.58
2019-03-13T07:40:01.748Z,83.82
2019-03-13T07:41:01.749Z,84.58
2019-03-13T07:42:54.653Z,85.53
2019-03-13T07:43:54.662Z,85.91
2019-03-13T07:45:47.569Z,86.67
2019-03-13T07:46:47.574Z,86.86
2019-03-13T07:48:40.471Z,87.24
2019-03-13T07:49:40.482Z,88.38
2019-03-13T07:51:33.389Z,88.47
2019-03-13T07:52:33.394Z,89.90
2019-03-13T07:54:26.299Z,89.42
2019-03-13T07:55:26.371Z,89.42
2019-03-13T07:57:19.206Z,89.71
2019-03-13T07:58:19.215Z,89.61
2019-03-13T08:00:12.119Z,89.52
2019-03-13T08:01:12.123Z,89.14
2019-03-13T08:03:05.025Z,88.95
2019-03-13T08:04:05.660Z,89.23
2019-03-13T08:05:57.941Z,88.95
2019-03-13T08:06:57.943Z,88.76
2019-03-13T08:08:50.847Z,88.95
2019-03-13T08:09:50.855Z,88.95
2019-03-13T08:11:44.383Z,88.19
2019-03-13T08:12:43.769Z,88.47
2019-03-13T08:14:36.679Z,88.85
2019-03-13T08:15:36.682Z,88.95
2019-03-13T08:17:29.585Z,88.76
2019-03-13T08:18:29.597Z,88.28
2019-03-13T08:20:22.533Z,87.81
2019-03-13T08:21:22.509Z,87.14
2019-03-13T08:23:15.410Z,87.34
2019-03-13T08:24:15.421Z,87.28
2019-03-13T08:26:08.329Z,87.47
2019-03-13T08:27:08.331Z,86.90
2019-03-13T08:29:01.237Z,85.95
2019-03-13T08:30:01.244Z,85.95
2019-03-13T08:31:54.156Z,85.19
2019-03-13T08:32:54.162Z,85.19
2019-03-13T08:34:47.070Z,84.14
2019-03-13T08:35:47.073Z,84.52
2019-03-13T08:37:41.951Z,84.62
2019-03-13T08:38:39.990Z,84.43
2019-03-13T08:40:32.895Z,83.76
2019-03-13T08:41:32.940Z,83.58
2019-03-13T08:43:25.802Z,83.76
2019-03-13T08:44:25.811Z,84.33
2019-03-13T08:46:18.730Z,83.29
2019-03-13T08:47:18.725Z,83.76
2019-03-13T08:49:11.626Z,83.58
2019-03-13T08:50:11.637Z,83.48
2019-03-13T08:52:04.550Z,83.00
2019-03-13T08:53:04.553Z,83.00
2019-03-13T08:54:57.460Z,83.29
2019-03-13T08:55:57.463Z,83.39
2019-03-13T08:57:50.365Z,83.86
2019-03-13T08:58:50.375Z,83.19
2019-03-13T09:00:43.287Z,83.19
2019-03-13T09:01:43.291Z,82.62
2019-03-13T09:03:36.211Z,82.05
2019-03-13T09:04:36.206Z,82.34
2019-03-13T09:06:29.112Z,82.81
2019-03-13T09:07:29.116Z,82.62
2019-03-13T09:09:22.017Z,81.67
2019-03-13T09:10:22.764Z,81.20
2019-03-13T09:12:14.942Z,81.67
2019-03-13T09:13:14.942Z,81.48
2019-03-13T09:15:08.626Z,81.48
2019-03-13T09:16:08.631Z,81.58
2019-03-13T09:18:01.537Z,82.43
2019-03-13T09:19:01.545Z,82.24
2019-03-13T09:20:54.452Z,81.96
2019-03-13T09:21:54.457Z,82.34
2019-03-13T09:23:47.358Z,82.81
2019-03-13T09:24:47.371Z,82.62
2019-03-13T09:26:40.280Z,83.00
2019-03-13T09:27:40.284Z,82.91
2019-03-13T09:29:33.225Z,83.00
2019-03-13T09:30:33.197Z,82.81
2019-03-13T09:32:26.109Z,83.00
2019-03-13T09:33:26.114Z,82.81
2019-03-13T09:35:19.019Z,83.00
2019-03-13T09:36:19.023Z,83.10
2019-03-13T09:38:11.924Z,83.39
2019-03-13T09:39:11.936Z,83.39
2019-03-13T09:41:04.841Z,83.58
2019-03-13T09:42:04.845Z,83.10
2019-03-13T09:43:59.911Z,82.81
2019-03-13T09:44:57.756Z,82.71
2019-03-13T09:46:50.666Z,82.05
2019-03-13T09:47:50.669Z,82.34
2019-03-13T09:49:43.571Z,82.71
2019-03-13T09:50:43.579Z,82.43
2019-03-13T09:52:36.487Z,82.09
2019-03-13T09:53:36.491Z,82.15
2019-03-13T09:55:29.543Z,82.57
2019-03-13T09:56:29.547Z,82.86
2019-03-13T09:58:22.445Z,83.23
2019-03-13T09:59:22.457Z,83.14
2019-03-13T10:01:15.366Z,83.76
2019-03-13T10:02:15.370Z,84.24
2019-03-13T10:04:08.281Z,84.62
2019-03-13T10:05:08.281Z,85.57
2019-03-13T10:07:01.188Z,86.24
2019-03-13T10:08:01.193Z,86.24
2019-03-13T10:09:54.093Z,85.57
2019-03-13T10:10:54.102Z,85.28
2019-03-13T10:12:47.008Z,86.33
2019-03-13T10:13:47.013Z,86.43
2019-03-13T10:15:39.918Z,87.85
2019-03-13T10:16:39.930Z,88.23
2019-03-13T10:18:32.835Z,88.42
2019-03-13T10:19:32.835Z,87.85
2019-03-13T10:21:25.751Z,87.47
2019-03-13T10:22:25.798Z,87.19
2019-03-13T10:24:18.648Z,87.85
2019-03-13T10:25:18.659Z,89.18
2019-03-13T10:27:11.568Z,88.90
2019-03-13T10:28:11.572Z,88.23
2019-03-13T10:30:04.473Z,88.75
2019-03-13T10:31:04.484Z,88.71
2019-03-13T10:32:57.392Z,88.94
2019-03-13T10:33:57.398Z,89.51
2019-03-13T10:35:50.309Z,89.61
2019-03-13T10:36:50.822Z,89.23
2019-03-13T10:38:43.219Z,88.75
2019-03-13T10:39:43.228Z,89.04
2019-03-13T10:41:36.631Z,88.61
2019-03-13T10:42:36.636Z,89.47
2019-03-13T10:44:29.539Z,90.99
2019-03-13T10:45:29.549Z,91.66
2019-03-13T10:47:22.457Z,91.75
2019-03-13T10:48:22.464Z,91.47
2019-03-13T10:50:15.363Z,91.66
2019-03-13T10:51:15.393Z,91.47
2019-03-13T10:53:08.282Z,91.85
2019-03-13T10:54:08.290Z,91.85
2019-03-13T10:56:01.197Z,92.03
2019-03-13T10:57:01.200Z,92.41
2019-03-13T10:58:54.105Z,92.61
2019-03-13T10:59:54.116Z,92.03
2019-03-13T11:01:47.024Z,91.18
2019-03-13T11:02:47.028Z,91.66
2019-03-13T11:04:39.929Z,90.61
2019-03-13T11:05:39.939Z,91.28
2019-03-13T11:07:32.847Z,90.42
2019-03-13T11:08:32.851Z,90.19
2019-03-13T11:10:25.753Z,90.80
2019-03-13T11:11:25.762Z,90.99
2019-03-13T11:13:18.669Z,90.80
2019-03-13T11:14:18.677Z,91.66
2019-03-13T11:16:11.578Z,89.94
2019-03-13T11:17:11.582Z,90.70
2019-03-13T11:19:04.482Z,90.33
2019-03-13T11:20:04.495Z,90.14
2019-03-13T11:21:57.398Z,90.04
2019-03-13T11:22:57.403Z,89.75
2019-03-13T11:24:50.304Z,89.18
2019-03-13T11:25:50.314Z,89.18
2019-03-13T11:27:43.229Z,89.09
2019-03-13T11:28:43.234Z,89.56
2019-03-13T11:30:36.136Z,88.13
2019-03-13T11:31:36.144Z,88.33
2019-03-13T11:33:29.057Z,88.42
2019-03-13T11:34:29.056Z,88.37
2019-03-13T11:36:21.966Z,88.46
2019-03-13T11:37:21.967Z,88.56
2019-03-13T11:39:15.363Z,87.99
2019-03-13T11:40:15.373Z,87.23
2019-03-13T11:42:08.280Z,87.19
2019-03-13T11:43:08.284Z,87.76
2019-03-13T11:45:01.185Z,88.13
2019-03-13T11:46:01.195Z,87.85
2019-03-13T11:47:54.105Z,87.90
2019-03-13T11:48:54.110Z,88.09
2019-03-13T11:50:47.012Z,87.52
2019-03-13T11:51:47.021Z,87.23
2019-03-13T11:53:39.936Z,87.32
2019-03-13T11:54:39.934Z,87.32
2019-03-13T11:56:32.845Z,86.85
2019-03-13T11:57:32.849Z,86.85
2019-03-13T11:59:25.751Z,86.76
2019-03-13T12:00:25.761Z,86.76
2019-03-13T12:02:18.668Z,86.85
2019-03-13T12:03:18.672Z,87.04
2019-03-13T12:05:11.574Z,85.86
2019-03-13T12:06:11.581Z,85.95
2019-03-13T12:08:04.486Z,86.57
2019-03-13T12:09:04.490Z,86.76
2019-03-13T12:10:57.429Z,86.38
2019-03-13T12:11:57.479Z,86.38
2019-03-13T12:13:50.349Z,85.24
2019-03-13T12:14:50.357Z,85.42
2019-03-13T12:16:43.264Z,84.85
2019-03-13T12:17:43.268Z,84.95
2019-03-13T12:19:36.197Z,84.66
2019-03-13T12:20:36.180Z,84.56
2019-03-13T12:22:29.087Z,84.38
2019-03-13T12:23:29.090Z,84.47
2019-03-13T12:25:21.991Z,84.95
2019-03-13T12:26:22.005Z,84.95
2019-03-13T12:28:14.913Z,84.38
2019-03-13T12:29:14.945Z,83.62
2019-03-13T12:31:07.818Z,84.28
2019-03-13T12:32:07.831Z,84.19
2019-03-13T12:34:00.741Z,84.28
2019-03-13T12:35:00.757Z,85.04
2019-03-13T12:36:53.652Z,84.85
2019-03-13T12:37:53.656Z,85.61
2019-03-13T12:39:46.557Z,85.42
2019-03-13T12:40:46.570Z,85.33
2019-03-13T12:42:39.484Z,85.80
2019-03-13T12:43:39.492Z,86.28
2019-03-13T12:45:32.537Z,86.76
2019-03-13T12:46:32.549Z,86.94
2019-03-13T12:48:25.483Z,86.38
2019-03-13T12:49:25.490Z,86.57
2019-03-13T12:51:18.573Z,87.61
2019-03-13T12:52:18.589Z,87.90
2019-03-13T12:54:11.503Z,88.09
2019-03-13T12:55:11.556Z,87.42
2019-03-13T12:57:04.508Z,88.28
2019-03-13T12:58:04.415Z,87.99
2019-03-13T12:59:57.315Z,88.75
2019-03-13T13:00:57.327Z,89.04
2019-03-13T13:02:50.238Z,89.99
2019-03-13T13:03:50.241Z,89.80
2019-03-13T13:05:43.140Z,90.61
2019-03-13T13:06:43.149Z,91.32
2019-03-13T13:08:36.060Z,92.03
2019-03-13T13:09:36.066Z,92.03
2019-03-13T13:11:28.962Z,92.22
2019-03-13T13:12:28.976Z,92.32
2019-03-13T13:14:21.884Z,92.99
2019-03-13T13:15:21.885Z,93.75
2019-03-13T13:17:14.792Z,94.42
2019-03-13T13:18:14.796Z,94.42
2019-03-13T13:20:07.699Z,93.94
2019-03-13T13:21:07.867Z,94.79
2019-03-13T13:23:00.630Z,94.51
2019-03-13T13:24:00.628Z,94.70
2019-03-13T13:25:53.737Z,95.17
2019-03-13T13:26:53.533Z,94.98
2019-03-13T13:28:46.435Z,95.89
2019-03-13T13:29:46.443Z,95.94
2019-03-13T13:31:39.350Z,96.08
2019-03-13T13:32:39.357Z,96.36
2019-03-13T13:34:32.354Z,96.36
2019-03-13T13:35:32.360Z,96.45
2019-03-13T13:37:25.280Z,97.03
2019-03-13T13:38:25.274Z,96.84
2019-03-13T13:40:18.170Z,97.60
2019-03-13T13:41:18.184Z,97.41
2019-03-13T13:43:11.090Z,97.60
2019-03-13T13:44:11.094Z,97.60
2019-03-13T13:46:03.998Z,97.60
2019-03-13T13:47:04.008Z,97.97
2019-03-13T13:48:56.918Z,98.26
2019-03-13T13:49:59.949Z,98.93
2019-03-13T13:51:49.815Z,99.30
2019-03-13T13:52:49.830Z,99.50
2019-03-13T13:54:42.733Z,99.69
2019-03-13T13:55:42.737Z,99.78
2019-03-13T13:57:35.659Z,99.88
2019-03-13T13:58:35.650Z,99.88
2019-03-13T14:00:28.549Z,99.78
2019-03-13T14:01:28.561Z,99.99
2019-03-13T14:03:21.466Z,99.40
2019-03-13T14:04:21.471Z,99.97
2019-03-13T14:06:14.372Z,99.99
2019-03-13T14:07:14.379Z,99.99
2019-03-13T14:09:07.286Z,99.99
2019-03-13T14:10:07.285Z,99.97
2019-03-13T14:12:00.329Z,99.99
2019-03-13T14:13:00.197Z,99.99
2019-03-13T14:14:53.103Z,99.99
2019-03-13T14:15:53.110Z,99.99
2019-03-13T14:17:46.011Z,99.99
2019-03-13T14:18:46.021Z,99.99
2019-03-13T14:20:38.926Z,99.99
2019-03-13T14:21:38.933Z,99.99
2019-03-13T14:23:31.838Z,99.99
2019-03-13T14:24:31.841Z,99.99
2019-03-13T14:26:24.740Z,99.99
2019-03-13T14:27:24.751Z,99.99
2019-03-13T14:29:17.659Z,99.99
2019-03-13T14:30:17.663Z,99.99
2019-03-13T14:32:10.565Z,99.99
2019-03-13T14:33:10.576Z,99.99
2019-03-13T14:35:03.485Z,99.99
2019-03-13T14:36:03.486Z,99.99
2019-03-13T14:37:56.391Z,99.99
2019-03-13T14:38:56.400Z,99.99
2019-03-13T14:40:49.313Z,99.99
2019-03-13T14:41:49.312Z,99.99
2019-03-13T14:43:42.221Z,99.99
2019-03-13T14:44:42.226Z,99.99
2019-03-13T14:46:35.134Z,99.99
2019-03-13T14:47:35.146Z,99.99
2019-03-13T14:49:28.054Z,99.99
2019-03-13T14:50:28.060Z,99.99
2019-03-13T14:52:20.961Z,99.99
2019-03-13T14:53:21.027Z,99.99
2019-03-13T14:55:13.885Z,99.99
2019-03-13T14:56:13.886Z,99.99
2019-03-13T14:58:06.791Z,99.99
2019-03-13T14:59:06.797Z,99.99
2019-03-13T15:00:59.702Z,99.99
2019-03-13T15:01:59.704Z,99.99
2019-03-13T15:03:52.815Z,99.99
2019-03-13T15:04:52.614Z,99.99
2019-03-13T15:06:45.516Z,99.99
2019-03-13T15:07:45.530Z,99.99
2019-03-13T15:09:39.453Z,99.99
2019-03-13T15:10:38.436Z,99.99
2019-03-13T15:12:31.351Z,99.74
2019-03-13T15:13:31.360Z,98.97
2019-03-13T15:15:24.293Z,97.74
2019-03-13T15:16:24.302Z,97.74
2019-03-13T15:18:17.171Z,98.41
2019-03-13T15:19:17.181Z,98.22
2019-03-13T15:21:10.095Z,98.50
2019-03-13T15:22:10.099Z,99.16
2019-03-13T15:24:03.001Z,98.31
2019-03-13T15:25:03.008Z,97.83
2019-03-13T15:26:56.000Z,97.27
2019-03-13T15:27:55.933Z,96.79
2019-03-13T15:29:48.830Z,95.70
2019-03-13T15:30:48.835Z,95.70
2019-03-13T15:32:41.736Z,95.98
2019-03-13T15:33:41.746Z,95.79
2019-03-13T15:35:34.657Z,95.32
2019-03-13T15:36:34.670Z,95.60
2019-03-13T15:38:27.562Z,95.03
2019-03-13T15:39:27.572Z,94.93
2019-03-13T15:41:20.485Z,94.93
2019-03-13T15:42:20.490Z,94.51
2019-03-13T15:44:13.396Z,94.93
2019-03-13T15:45:13.400Z,94.27
2019-03-13T15:47:06.317Z,93.65
2019-03-13T15:48:06.333Z,93.84
2019-03-13T15:49:59.240Z,94.42
2019-03-13T15:50:59.241Z,93.94
2019-03-13T15:52:52.140Z,94.89
2019-03-13T15:53:52.152Z,94.42
2019-03-13T15:55:45.059Z,95.08
2019-03-13T15:56:45.068Z,94.89
2019-03-13T15:58:37.962Z,94.70
2019-03-13T15:59:37.974Z,94.60
2019-03-13T16:01:30.889Z,94.79
2019-03-13T16:02:30.886Z,95.36
2019-03-13T16:04:23.796Z,95.75
2019-03-13T16:05:23.800Z,95.36
2019-03-13T16:07:16.702Z,95.75
2019-03-13T16:08:16.709Z,95.75
2019-03-13T16:10:09.620Z,95.56
2019-03-13T16:11:09.653Z,95.56
2019-03-13T16:13:02.523Z,96.03
2019-03-13T16:14:02.548Z,96.41
2019-03-13T16:15:55.441Z,96.69
2019-03-13T16:16:55.445Z,96.31
2019-03-13T16:18:48.343Z,96.31
2019-03-13T16:19:48.354Z,96.31
2019-03-13T16:21:41.261Z,96.22
2019-03-13T16:22:41.264Z,96.31
2019-03-13T16:24:34.179Z,96.60
2019-03-13T16:25:34.180Z,96.60
2019-03-13T16:27:27.079Z,96.79
2019-03-13T16:28:27.090Z,96.79
2019-03-13T16:30:20.000Z,96.98
2019-03-13T16:31:20.003Z,97.78
2019-03-13T16:33:12.907Z,97.78
2019-03-13T16:34:12.916Z,99.21
2019-03-13T16:36:05.824Z,99.26
2019-03-13T16:37:05.833Z,99.97
2019-03-13T16:38:58.728Z,99.50
2019-03-13T16:39:58.740Z,99.69
2019-03-13T16:41:51.648Z,99.69
2019-03-13T16:42:51.650Z,99.99
2019-03-13T16:44:44.572Z,99.99
2019-03-13T16:45:44.557Z,99.99
2019-03-13T16:47:37.702Z,99.99
2019-03-13T16:48:37.664Z,99.99
2019-03-13T16:50:30.640Z,99.99
2019-03-13T16:51:30.584Z,99.99
2019-03-13T16:53:23.488Z,99.99
2019-03-13T16:54:23.510Z,99.99
2019-03-13T16:56:16.408Z,99.99
2019-03-13T16:57:16.432Z,99.99
2019-03-13T16:59:09.362Z,99.99
2019-03-13T17:00:09.317Z,99.69
2019-03-13T17:02:02.222Z,99.78
2019-03-13T17:03:02.227Z,99.50
2019-03-13T17:04:55.207Z,99.59
2019-03-13T17:05:55.214Z,99.59
2019-03-13T17:07:49.896Z,99.97
2019-03-13T17:08:48.120Z,99.99
2019-03-13T17:10:41.025Z,99.69
2019-03-13T17:11:41.024Z,99.88
2019-03-13T17:13:33.929Z,99.88
2019-03-13T17:14:33.939Z,99.88
2019-03-13T17:16:26.848Z,99.88
2019-03-13T17:17:26.850Z,99.59
2019-03-13T17:19:19.752Z,98.93
2019-03-13T17:20:19.785Z,99.11
2019-03-13T17:22:12.692Z,99.59
2019-03-13T17:23:12.684Z,99.99
2019-03-13T17:25:05.586Z,99.69
2019-03-13T17:26:05.588Z,99.97
2019-03-13T17:27:58.989Z,99.99
2019-03-13T17:28:58.999Z,99.99
2019-03-13T17:30:51.903Z,99.99
2019-03-13T17:31:51.908Z,99.99
2019-03-13T17:33:44.808Z,99.99
2019-03-13T17:34:44.818Z,99.99
2019-03-13T17:36:37.724Z,99.99
2019-03-13T17:37:37.725Z,99.78
2019-03-13T17:39:33.626Z,99.88
2019-03-13T17:40:30.634Z,99.88
2019-03-13T17:42:23.555Z,99.11
2019-03-13T17:43:23.546Z,99.30
2019-03-13T17:45:16.451Z,98.64
2019-03-13T17:46:16.458Z,98.64
2019-03-13T17:48:09.371Z,98.45
2019-03-13T17:49:09.370Z,98.74
2019-03-13T17:51:02.282Z,98.36
2019-03-13T17:52:02.285Z,98.64
2019-03-13T17:53:55.186Z,98.07
2019-03-13T17:54:55.196Z,98.26
2019-03-13T17:56:48.105Z,98.17
2019-03-13T17:57:48.107Z,98.26
2019-03-13T17:59:41.010Z,97.78
2019-03-13T18:00:41.022Z,98.45
2019-03-13T18:02:33.930Z,98.07
2019-03-13T18:03:33.931Z,98.55
2019-03-13T18:05:26.840Z,98.45
2019-03-13T18:06:26.845Z,98.93
2019-03-13T18:08:19.748Z,99.21
2019-03-13T18:09:19.756Z,99.99
2019-03-13T18:11:13.159Z,99.21
2019-03-13T18:12:13.164Z,99.50
2019-03-13T18:14:06.064Z,99.69
2019-03-13T18:15:06.077Z,99.59
2019-03-13T18:16:58.982Z,99.99
2019-03-13T18:17:58.988Z,99.99
2019-03-13T18:19:51.907Z,99.99
2019-03-13T18:20:51.901Z,99.99
2019-03-13T18:22:44.808Z,99.99
2019-03-13T18:23:44.810Z,99.99
2019-03-13T18:25:37.722Z,99.99
2019-03-13T18:26:37.721Z,99.99
2019-03-13T18:28:30.623Z,99.99
2019-03-13T18:29:30.633Z,99.99
2019-03-13T18:31:23.536Z,99.99
2019-03-13T18:32:23.542Z,99.99
2019-03-13T18:34:16.454Z,99.99